Private Wetterstation Sandau
Wetterdaten: Donnerstag, 23.08.2012
Datum Zeit Temp. A. Feuchte A. Luftdruck Regen Wind Richtung Richtung Taupunkt Windchill
23.08.2012 00:01 17,9 C 65 % 1015,6 hPa 0,0 l/m 1,8 km/h (1 Bft) W 270 11,2 C 17,9 C
23.08.2012 00:06 17,9 C 66 % 1015,6 hPa 0,0 l/m 0,0 km/h (0 Bft) W-SW 247 11,5 C 17,9 C
23.08.2012 00:11 17,9 C 66 % 1015,6 hPa 0,0 l/m 4,0 km/h (1 Bft) W-SW 247 11,5 C 17,9 C
23.08.2012 00:16 17,9 C 65 % 1015,7 hPa 0,0 l/m 2,2 km/h (1 Bft) W-SW 247 11,2 C 17,9 C
23.08.2012 00:21 17,9 C 66 % 1015,7 hPa 0,0 l/m 3,6 km/h (1 Bft) W 270 11,5 C 17,9 C
23.08.2012 00:26 17,8 C 66 % 1015,6 hPa 0,0 l/m 4,7 km/h (1 Bft) W-SW 247 11,4 C 17,8 C
23.08.2012 00:31 17,8 C 66 % 1015,6 hPa 0,0 l/m 2,5 km/h (1 Bft) W 270 11,4 C 17,8 C
23.08.2012 00:36 17,7 C 66 % 1015,6 hPa 0,0 l/m 2,2 km/h (1 Bft) W-SW 247 11,3 C 17,7 C
23.08.2012 00:41 17,6 C 67 % 1015,6 hPa 0,0 l/m 2,5 km/h (1 Bft) W 270 11,4 C 17,6 C
23.08.2012 00:46 17,6 C 67 % 1015,6 hPa 0,0 l/m 0,0 km/h (0 Bft) W 270 11,4 C 17,6 C
23.08.2012 00:51 17,5 C 67 % 1015,6 hPa 0,0 l/m 0,0 km/h (0 Bft) W 270 11,3 C 17,5 C
23.08.2012 00:56 17,4 C 67 % 1015,7 hPa 0,0 l/m 2,2 km/h (1 Bft) W 270 11,2 C 17,4 C
23.08.2012 01:01 17,3 C 67 % 1015,7 hPa 0,0 l/m 2,2 km/h (1 Bft) W 270 11,1 C 17,3 C
23.08.2012 01:06 17,3 C 68 % 1015,7 hPa 0,0 l/m 0,0 km/h (0 Bft) W 270 11,3 C 17,3 C
23.08.2012 01:11 17,2 C 68 % 1015,7 hPa 0,0 l/m 2,2 km/h (1 Bft) W 270 11,2 C 17,2 C
23.08.2012 01:16 17,1 C 68 % 1015,7 hPa 0,0 l/m 2,5 km/h (1 Bft) W 270 11,1 C 17,1 C
23.08.2012 01:21 17,1 C 68 % 1015,7 hPa 0,0 l/m 2,2 km/h (1 Bft) W-SW 247 11,1 C 17,1 C
23.08.2012 01:26 16,9 C 69 % 1015,7 hPa 0,0 l/m 5,0 km/h (1 Bft) W 270 11,2 C 16,9 C
23.08.2012 01:31 16,9 C 69 % 1015,7 hPa 0,0 l/m 4,3 km/h (1 Bft) W 270 11,2 C 16,9 C
23.08.2012 01:36 16,8 C 69 % 1015,8 hPa 0,0 l/m 7,6 km/h (2 Bft) W 270 11,1 C 16,8 C
23.08.2012 01:41 16,7 C 70 % 1015,8 hPa 0,0 l/m 4,0 km/h (1 Bft) W-SW 247 11,2 C 16,7 C
23.08.2012 01:46 16,5 C 70 % 1015,8 hPa 0,0 l/m 5,8 km/h (2 Bft) W-SW 247 11,0 C 16,5 C
23.08.2012 01:51 16,4 C 70 % 1015,9 hPa 0,0 l/m 4,0 km/h (1 Bft) W 270 10,9 C 16,4 C
23.08.2012 01:56 16,3 C 71 % 1015,9 hPa 0,0 l/m 2,5 km/h (1 Bft) W 270 11,0 C 16,3 C
23.08.2012 02:01 16,3 C 71 % 1015,8 hPa 0,0 l/m 2,2 km/h (1 Bft) W-SW 247 11,0 C 16,3 C
23.08.2012 02:06 16,2 C 71 % 1015,8 hPa 0,0 l/m 2,2 km/h (1 Bft) W-SW 247 10,9 C 16,2 C
23.08.2012 02:11 16,1 C 71 % 1015,9 hPa 0,0 l/m 4,3 km/h (1 Bft) W-SW 247 10,8 C 16,1 C
23.08.2012 02:16 16,1 C 71 % 1015,8 hPa 0,0 l/m 4,0 km/h (1 Bft) W 270 10,8 C 16,1 C
23.08.2012 02:21 16,1 C 71 % 1015,7 hPa 0,0 l/m 1,8 km/h (1 Bft) W 270 10,8 C 16,1 C
23.08.2012 02:26 16,1 C 72 % 1015,8 hPa 0,0 l/m 4,7 km/h (1 Bft) W 270 11,0 C 16,1 C
23.08.2012 02:31 16,0 C 72 % 1015,8 hPa 0,0 l/m 4,3 km/h (1 Bft) W 270 11,0 C 16,0 C
23.08.2012 02:36 15,9 C 72 % 1015,7 hPa 0,0 l/m 2,9 km/h (1 Bft) W 270 10,9 C 15,9 C
23.08.2012 02:41 15,9 C 72 % 1015,8 hPa 0,0 l/m 4,0 km/h (1 Bft) W-NW 292 10,9 C 15,9 C
23.08.2012 02:46 15,8 C 72 % 1015,9 hPa 0,0 l/m 4,7 km/h (1 Bft) W-SW 247 10,8 C 15,8 C
23.08.2012 02:51 15,8 C 73 % 1015,8 hPa 0,0 l/m 7,2 km/h (2 Bft) W 270 11,0 C 15,8 C
23.08.2012 02:56 15,8 C 73 % 1015,8 hPa 0,0 l/m 11,2 km/h (2 Bft) W-SW 247 11,0 C 15,8 C
23.08.2012 03:01 15,8 C 73 % 1015,8 hPa 0,0 l/m 4,0 km/h (1 Bft) W-SW 247 11,0 C 15,8 C
23.08.2012 03:06 15,6 C 73 % 1015,7 hPa 0,0 l/m 4,3 km/h (1 Bft) W-SW 247 10,8 C 15,6 C
23.08.2012 03:11 15,6 C 73 % 1015,8 hPa 0,0 l/m 3,6 km/h (1 Bft) W 270 10,8 C 15,6 C
23.08.2012 03:16 15,6 C 73 % 1015,7 hPa 0,0 l/m 6,1 km/h (2 Bft) W-SW 247 10,8 C 15,6 C
23.08.2012 03:21 15,6 C 74 % 1015,7 hPa 0,0 l/m 4,7 km/h (1 Bft) W-SW 247 11,0 C 15,6 C
23.08.2012 03:26 15,6 C 74 % 1015,9 hPa 0,0 l/m 4,3 km/h (1 Bft) SW 225 11,0 C 15,6 C
23.08.2012 03:31 15,6 C 74 % 1016,0 hPa 0,0 l/m 2,9 km/h (1 Bft) SW 225 11,0 C 15,6 C
23.08.2012 03:36 15,8 C 74 % 1015,9 hPa 0,0 l/m 6,1 km/h (2 Bft) W 270 11,2 C 15,8 C
23.08.2012 03:41 15,8 C 74 % 1015,9 hPa 0,0 l/m 5,8 km/h (2 Bft) W-SW 247 11,2 C 15,8 C
23.08.2012 03:46 15,8 C 74 % 1016,0 hPa 0,0 l/m 5,0 km/h (1 Bft) W-SW 247 11,2 C 15,8 C
23.08.2012 03:51 15,9 C 74 % 1016,0 hPa 0,0 l/m 4,0 km/h (1 Bft) W-SW 247 11,3 C 15,9 C
23.08.2012 03:56 15,9 C 74 % 1016,0 hPa 0,0 l/m 9,4 km/h (2 Bft) W-SW 247 11,3 C 15,9 C
23.08.2012 04:01 15,9 C 74 % 1016,0 hPa 0,0 l/m 2,2 km/h (1 Bft) SW 225 11,3 C 15,9 C
23.08.2012 04:06 15,8 C 74 % 1016,1 hPa 0,0 l/m 2,5 km/h (1 Bft) W 270 11,2 C 15,8 C
23.08.2012 04:11 15,8 C 74 % 1016,0 hPa 0,0 l/m 5,0 km/h (1 Bft) W-SW 247 11,2 C 15,8 C
23.08.2012 04:16 15,8 C 74 % 1016,1 hPa 0,0 l/m 7,6 km/h (2 Bft) W 270 11,2 C 15,8 C
23.08.2012 04:21 15,8 C 74 % 1016,2 hPa 0,0 l/m 5,0 km/h (1 Bft) W-SW 247 11,2 C 15,8 C
23.08.2012 04:26 15,8 C 74 % 1016,1 hPa 0,0 l/m 9,0 km/h (2 Bft) SW 225 11,2 C 15,8 C
23.08.2012 04:31 15,9 C 74 % 1016,0 hPa 0,0 l/m 5,8 km/h (2 Bft) SW 225 11,3 C 15,9 C
23.08.2012 04:36 15,9 C 73 % 1016,0 hPa 0,0 l/m 6,8 km/h (2 Bft) W-SW 247 11,1 C 15,9 C
23.08.2012 04:41 15,9 C 73 % 1015,9 hPa 0,0 l/m 5,4 km/h (1 Bft) W-SW 247 11,1 C 15,9 C
23.08.2012 04:46 15,9 C 73 % 1015,9 hPa 0,0 l/m 2,9 km/h (1 Bft) W-SW 247 11,1 C 15,9 C
23.08.2012 04:51 15,9 C 73 % 1015,8 hPa 0,0 l/m 10,1 km/h (2 Bft) W 270 11,1 C 15,9 C
23.08.2012 04:56 15,8 C 73 % 1015,9 hPa 0,0 l/m 7,6 km/h (2 Bft) W-SW 247 11,0 C 15,8 C
23.08.2012 05:01 15,8 C 73 % 1015,9 hPa 0,0 l/m 8,6 km/h (2 Bft) W 270 11,0 C 15,8 C
23.08.2012 05:06 15,6 C 73 % 1015,9 hPa 0,0 l/m 2,5 km/h (1 Bft) W 270 10,8 C 15,6 C
23.08.2012 05:11 15,5 C 74 % 1015,9 hPa 0,0 l/m 5,8 km/h (2 Bft) W-SW 247 10,9 C 15,5 C
23.08.2012 05:16 15,4 C 74 % 1015,8 hPa 0,0 l/m 7,2 km/h (2 Bft) SW 225 10,8 C 15,4 C
23.08.2012 05:21 15,3 C 74 % 1015,8 hPa 0,0 l/m 12,2 km/h (2 Bft) W-SW 247 10,7 C 15,3 C
23.08.2012 05:26 15,3 C 74 % 1015,8 hPa 0,0 l/m 2,9 km/h (1 Bft) W-SW 247 10,7 C 15,3 C
23.08.2012 05:31 15,2 C 75 % 1016,0 hPa 0,0 l/m 8,3 km/h (2 Bft) W-SW 247 10,8 C 15,2 C
23.08.2012 05:36 15,0 C 75 % 1016,0 hPa 0,0 l/m 2,5 km/h (1 Bft) W 270 10,6 C 15,0 C
23.08.2012 05:41 14,9 C 75 % 1015,8 hPa 0,0 l/m 1,1 km/h (1 Bft) W 270 10,5 C 14,9 C
23.08.2012 05:46 14,9 C 75 % 1015,7 hPa 0,0 l/m 5,8 km/h (2 Bft) W-SW 247 10,5 C 14,9 C
23.08.2012 05:51 14,9 C 75 % 1015,6 hPa 0,0 l/m 6,1 km/h (2 Bft) W-SW 247 10,5 C 14,9 C
23.08.2012 05:56 14,9 C 76 % 1015,6 hPa 0,0 l/m 6,5 km/h (2 Bft) SW 225 10,7 C 14,9 C
23.08.2012 06:01 14,9 C 76 % 1015,7 hPa 0,0 l/m 10,1 km/h (2 Bft) W 270 10,7 C 14,9 C
23.08.2012 06:06 14,9 C 76 % 1015,7 hPa 0,0 l/m 4,7 km/h (1 Bft) S-SW 202 10,7 C 14,9 C
23.08.2012 06:11 14,8 C 77 % 1015,7 hPa 0,0 l/m 10,4 km/h (2 Bft) W 270 10,8 C 14,8 C
23.08.2012 06:16 14,8 C 77 % 1015,7 hPa 0,0 l/m 6,8 km/h (2 Bft) W-SW 247 10,8 C 14,8 C
23.08.2012 06:21 14,7 C 77 % 1015,7 hPa 0,0 l/m 4,7 km/h (1 Bft) W-SW 247 10,7 C 14,7 C
23.08.2012 06:26 14,6 C 77 % 1015,7 hPa 0,0 l/m 5,0 km/h (1 Bft) W 270 10,6 C 14,6 C
23.08.2012 06:31 14,6 C 77 % 1015,7 hPa 0,0 l/m 7,2 km/h (2 Bft) W-SW 247 10,6 C 14,6 C
23.08.2012 06:36 14,5 C 77 % 1015,7 hPa 0,0 l/m 3,6 km/h (1 Bft) SW 225 10,5 C 14,5 C
23.08.2012 06:41 14,5 C 77 % 1015,7 hPa 0,0 l/m 3,2 km/h (1 Bft) W-SW 247 10,5 C 14,5 C
23.08.2012 06:46 14,5 C 77 % 1015,7 hPa 0,0 l/m 6,1 km/h (2 Bft) W-SW 247 10,5 C 14,5 C
23.08.2012 06:51 14,9 C 78 % 1015,7 hPa 0,0 l/m 12,6 km/h (3 Bft) SW 225 11,1 C 14,9 C
23.08.2012 06:56 15,4 C 77 % 1015,7 hPa 0,0 l/m 6,1 km/h (2 Bft) W-SW 247 11,4 C 15,4 C
23.08.2012 07:01 15,9 C 76 % 1015,7 hPa 0,0 l/m 6,5 km/h (2 Bft) W-SW 247 11,7 C 15,9 C
23.08.2012 07:06 16,4 C 74 % 1015,7 hPa 0,0 l/m 8,6 km/h (2 Bft) SW 225 11,8 C 16,4 C
23.08.2012 07:11 16,6 C 73 % 1015,8 hPa 0,0 l/m 3,2 km/h (1 Bft) W-SW 247 11,7 C 16,6 C
23.08.2012 07:16 16,6 C 72 % 1015,8 hPa 0,0 l/m 10,8 km/h (2 Bft) SW 225 11,5 C 16,6 C
23.08.2012 07:21 16,4 C 72 % 1015,9 hPa 0,0 l/m 2,9 km/h (1 Bft) W 270 11,3 C 16,4 C
23.08.2012 07:26 16,2 C 73 % 1015,9 hPa 0,0 l/m 6,5 km/h (2 Bft) S-SW 202 11,4 C 16,2 C
23.08.2012 07:31 16,1 C 73 % 1015,9 hPa 0,0 l/m 10,8 km/h (2 Bft) SW 225 11,3 C 16,1 C
23.08.2012 07:36 16,2 C 74 % 1016,0 hPa 0,0 l/m 6,8 km/h (2 Bft) N-NW 337 11,6 C 16,2 C
23.08.2012 07:41 16,4 C 73 % 1016,0 hPa 0,0 l/m 3,6 km/h (1 Bft) W-SW 247 11,5 C 16,4 C
23.08.2012 07:46 16,5 C 73 % 1016,0 hPa 0,0 l/m 3,2 km/h (1 Bft) W-SW 247 11,6 C 16,5 C
23.08.2012 07:51 16,5 C 73 % 1015,9 hPa 0,0 l/m 10,1 km/h (2 Bft) SW 225 11,6 C 16,5 C
23.08.2012 07:56 16,6 C 73 % 1016,0 hPa 0,0 l/m 16,9 km/h (3 Bft) NW 315 11,7 C 16,6 C
23.08.2012 08:01 16,8 C 72 % 1015,8 hPa 0,0 l/m 11,2 km/h (2 Bft) W-SW 247 11,7 C 16,8 C
23.08.2012 08:06 17,0 C 72 % 1015,8 hPa 0,0 l/m 14,4 km/h (3 Bft) W 270 11,9 C 17,0 C
23.08.2012 08:11 17,1 C 72 % 1015,8 hPa 0,0 l/m 9,0 km/h (2 Bft) W-SW 247 12,0 C 17,1 C
23.08.2012 08:16 17,2 C 72 % 1015,8 hPa 0,0 l/m 14,8 km/h (3 Bft) W 270 12,1 C 17,2 C
23.08.2012 08:21 17,4 C 71 % 1015,8 hPa 0,0 l/m 7,2 km/h (2 Bft) SW 225 12,1 C 17,4 C
23.08.2012 08:26 17,6 C 71 % 1015,8 hPa 0,0 l/m 14,8 km/h (3 Bft) W 270 12,3 C 17,6 C
23.08.2012 08:31 17,7 C 70 % 1015,8 hPa 0,0 l/m 6,1 km/h (2 Bft) W-SW 247 12,2 C 17,7 C
23.08.2012 08:36 17,8 C 70 % 1015,9 hPa 0,0 l/m 9,4 km/h (2 Bft) W-SW 247 12,3 C 17,8 C
23.08.2012 08:41 17,9 C 70 % 1016,0 hPa 0,0 l/m 9,0 km/h (2 Bft) W-SW 247 12,3 C 17,9 C
23.08.2012 08:46 17,9 C 70 % 1016,1 hPa 0,0 l/m 15,8 km/h (3 Bft) SW 225 12,3 C 17,9 C
23.08.2012 08:51 18,1 C 70 % 1016,2 hPa 0,0 l/m 8,3 km/h (2 Bft) SW 225 12,5 C 18,1 C
23.08.2012 08:56 18,3 C 70 % 1016,2 hPa 0,0 l/m 5,8 km/h (2 Bft) W-SW 247 12,7 C 18,3 C
23.08.2012 09:01 18,4 C 69 % 1016,3 hPa 0,0 l/m 8,3 km/h (2 Bft) W 270 12,6 C 18,4 C
23.08.2012 09:06 18,6 C 68 % 1016,4 hPa 0,0 l/m 8,3 km/h (2 Bft) W-SW 247 12,6 C 18,6 C
23.08.2012 09:11 18,8 C 68 % 1016,4 hPa 0,0 l/m 24,5 km/h (4 Bft) W-SW 247 12,8 C 18,8 C
23.08.2012 09:16 18,9 C 67 % 1016,3 hPa 0,0 l/m 16,6 km/h (3 Bft) W 270 12,6 C 18,9 C
23.08.2012 09:21 18,9 C 66 % 1016,3 hPa 0,0 l/m 9,0 km/h (2 Bft) W-SW 247 12,4 C 18,9 C
23.08.2012 09:26 19,1 C 66 % 1016,4 hPa 0,0 l/m 15,5 km/h (3 Bft) W 270 12,6 C 19,1 C
23.08.2012 09:31 19,2 C 66 % 1016,4 hPa 0,0 l/m 10,1 km/h (2 Bft) W-SW 247 12,7 C 19,2 C
23.08.2012 09:36 19,3 C 65 % 1016,4 hPa 0,0 l/m 10,4 km/h (2 Bft) W 270 12,6 C 19,3 C
23.08.2012 09:41 19,4 C 65 % 1016,4 hPa 0,0 l/m 13,0 km/h (3 Bft) W 270 12,6 C 19,4 C
23.08.2012 09:46 19,6 C 64 % 1016,4 hPa 0,0 l/m 23,0 km/h (4 Bft) W-SW 247 12,6 C 19,6 C
23.08.2012 09:51 19,8 C 63 % 1016,5 hPa 0,0 l/m 2,9 km/h (1 Bft) W-SW 247 12,5 C 19,8 C
23.08.2012 09:56 19,9 C 62 % 1016,4 hPa 0,0 l/m 8,6 km/h (2 Bft) W-SW 247 12,4 C 19,9 C
23.08.2012 10:01 20,0 C 62 % 1016,5 hPa 0,0 l/m 14,4 km/h (3 Bft) W-SW 247 12,5 C 20,0 C
23.08.2012 10:06 20,1 C 61 % 1016,5 hPa 0,0 l/m 10,1 km/h (2 Bft) W-SW 247 12,3 C 20,1 C
23.08.2012 10:11 20,2 C 61 % 1016,3 hPa 0,0 l/m 7,6 km/h (2 Bft) SW 225 12,4 C 20,2 C
23.08.2012 10:16 20,3 C 59 % 1016,3 hPa 0,0 l/m 16,9 km/h (3 Bft) W-SW 247 12,0 C 20,3 C
23.08.2012 10:21 20,4 C 60 % 1016,4 hPa 0,0 l/m 4,0 km/h (1 Bft) W-NW 292 12,4 C 20,4 C
23.08.2012 10:26 20,6 C 59 % 1016,3 hPa 0,0 l/m 18,0 km/h (3 Bft) W-SW 247 12,3 C 20,6 C
23.08.2012 10:31 20,8 C 58 % 1016,1 hPa 0,0 l/m 9,4 km/h (2 Bft) W-SW 247 12,2 C 20,8 C
23.08.2012 10:36 20,9 C 58 % 1016,4 hPa 0,0 l/m 24,5 km/h (4 Bft) W 270 12,3 C 20,9 C
23.08.2012 10:41 21,0 C 57 % 1016,4 hPa 0,0 l/m 17,6 km/h (3 Bft) SO 135 12,1 C 21,0 C
23.08.2012 10:46 21,0 C 57 % 1016,3 hPa 0,0 l/m 11,5 km/h (2 Bft) SW 225 12,1 C 21,0 C
23.08.2012 10:51 21,2 C 57 % 1016,3 hPa 0,0 l/m 11,9 km/h (2 Bft) W-SW 247 12,3 C 21,2 C
23.08.2012 10:56 21,3 C 56 % 1016,4 hPa 0,0 l/m 12,6 km/h (3 Bft) SW 225 12,2 C 21,3 C
23.08.2012 11:01 21,5 C 56 % 1016,4 hPa 0,0 l/m 16,9 km/h (3 Bft) W-SW 247 12,3 C 21,5 C
23.08.2012 11:06 21,6 C 55 % 1016,4 hPa 0,0 l/m 7,2 km/h (2 Bft) NW 315 12,2 C 21,6 C
23.08.2012 11:11 21,6 C 54 % 1016,5 hPa 0,0 l/m 27,0 km/h (4 Bft) W 270 11,9 C 21,6 C
23.08.2012 11:16 21,6 C 54 % 1016,2 hPa 0,0 l/m 25,9 km/h (4 Bft) W 270 11,9 C 21,6 C
23.08.2012 11:21 21,8 C 53 % 1016,2 hPa 0,0 l/m 14,8 km/h (3 Bft) W-NW 292 11,8 C 21,8 C
23.08.2012 11:26 21,9 C 53 % 1016,2 hPa 0,0 l/m 9,0 km/h (2 Bft) W 270 11,9 C 21,9 C
23.08.2012 11:31 22,1 C 53 % 1016,3 hPa 0,0 l/m 6,5 km/h (2 Bft) W 270 12,1 C 22,1 C
23.08.2012 11:36 22,3 C 53 % 1016,3 hPa 0,0 l/m 10,1 km/h (2 Bft) W 270 12,2 C 22,3 C
23.08.2012 11:41 22,4 C 52 % 1016,2 hPa 0,0 l/m 5,8 km/h (2 Bft) W-SW 247 12,1 C 22,4 C
23.08.2012 11:46 22,4 C 52 % 1016,2 hPa 0,0 l/m 15,5 km/h (3 Bft) SW 225 12,1 C 22,4 C
23.08.2012 11:51 22,5 C 52 % 1016,2 hPa 0,0 l/m 17,3 km/h (3 Bft) SW 225 12,1 C 22,5 C
23.08.2012 11:56 22,4 C 50 % 1016,1 hPa 0,0 l/m 18,4 km/h (3 Bft) W 270 11,5 C 22,4 C
23.08.2012 12:01 22,3 C 51 % 1016,1 hPa 0,0 l/m 12,6 km/h (3 Bft) W-SW 247 11,7 C 22,3 C
23.08.2012 12:06 22,3 C 51 % 1016,1 hPa 0,0 l/m 7,6 km/h (2 Bft) W-SW 247 11,7 C 22,3 C
23.08.2012 12:11 22,2 C 51 % 1016,0 hPa 0,0 l/m 14,4 km/h (3 Bft) S-SW 202 11,6 C 22,2 C
23.08.2012 12:16 22,4 C 51 % 1015,9 hPa 0,0 l/m 5,4 km/h (1 Bft) W-NW 292 11,8 C 22,4 C
23.08.2012 12:21 22,8 C 48 % 1015,9 hPa 0,0 l/m 6,8 km/h (2 Bft) W-SW 247 11,2 C 22,8 C
23.08.2012 12:26 22,9 C 49 % 1015,8 hPa 0,0 l/m 10,8 km/h (2 Bft) W 270 11,6 C 22,9 C
23.08.2012 12:31 23,0 C 48 % 1015,9 hPa 0,0 l/m 10,4 km/h (2 Bft) W-SW 247 11,4 C 23,0 C
23.08.2012 12:36 23,3 C 47 % 1015,7 hPa 0,0 l/m 20,9 km/h (4 Bft) S-SW 202 11,3 C 23,3 C
23.08.2012 12:41 23,4 C 47 % 1015,8 hPa 0,0 l/m 10,1 km/h (2 Bft) SW 225 11,4 C 23,4 C
23.08.2012 12:46 23,6 C 46 % 1015,6 hPa 0,0 l/m 11,9 km/h (2 Bft) W-SW 247 11,3 C 23,6 C
23.08.2012 12:51 23,9 C 46 % 1015,7 hPa 0,0 l/m 6,8 km/h (2 Bft) S-SW 202 11,6 C 23,9 C
23.08.2012 12:56 23,9 C 45 % 1015,7 hPa 0,0 l/m 13,7 km/h (3 Bft) W-NW 292 11,2 C 23,9 C
23.08.2012 13:01 23,8 C 45 % 1015,7 hPa 0,0 l/m 23,4 km/h (4 Bft) W-SW 247 11,1 C 23,8 C
23.08.2012 13:06 23,7 C 46 % 1015,7 hPa 0,0 l/m 4,3 km/h (1 Bft) W 270 11,4 C 23,7 C
23.08.2012 13:11 23,6 C 46 % 1015,6 hPa 0,0 l/m 27,0 km/h (4 Bft) W-SW 247 11,3 C 23,6 C
23.08.2012 13:16 23,9 C 46 % 1015,6 hPa 0,0 l/m 13,3 km/h (3 Bft) S-SW 202 11,6 C 23,9 C
23.08.2012 13:21 24,1 C 45 % 1015,5 hPa 0,0 l/m 7,2 km/h (2 Bft) W-SW 247 11,4 C 24,1 C
23.08.2012 13:26 24,4 C 44 % 1015,5 hPa 0,0 l/m 22,3 km/h (4 Bft) W 270 11,3 C 24,4 C
23.08.2012 13:31 24,5 C 44 % 1015,5 hPa 0,0 l/m 11,5 km/h (2 Bft) S-SW 202 11,4 C 24,5 C
23.08.2012 13:36 24,6 C 43 % 1015,7 hPa 0,0 l/m 14,0 km/h (3 Bft) W-SW 247 11,2 C 24,6 C
23.08.2012 13:41 24,6 C 43 % 1015,6 hPa 0,0 l/m 5,0 km/h (1 Bft) W 270 11,2 C 24,6 C
23.08.2012 13:46 24,3 C 43 % 1015,6 hPa 0,0 l/m 13,3 km/h (3 Bft) W 270 10,9 C 24,3 C
23.08.2012 13:51 24,5 C 44 % 1015,4 hPa 0,0 l/m 9,4 km/h (2 Bft) W-SW 247 11,4 C 24,5 C
23.08.2012 13:56 24,8 C 43 % 1015,4 hPa 0,0 l/m 5,0 km/h (1 Bft) S 180 11,4 C 24,8 C
23.08.2012 14:01 24,8 C 43 % 1015,4 hPa 0,0 l/m 8,6 km/h (2 Bft) NW 315 11,4 C 24,8 C
23.08.2012 14:06 24,5 C 43 % 1015,4 hPa 0,0 l/m 9,0 km/h (2 Bft) W-SW 247 11,1 C 24,5 C
23.08.2012 14:11 24,6 C 43 % 1015,3 hPa 0,0 l/m 8,3 km/h (2 Bft) S-SW 202 11,2 C 24,6 C
23.08.2012 14:16 25,1 C 43 % 1015,1 hPa 0,0 l/m 32,8 km/h (5 Bft) W-SW 247 11,6 C 25,1 C
23.08.2012 14:21 25,4 C 42 % 1015,0 hPa 0,0 l/m 9,0 km/h (2 Bft) W 270 11,5 C 25,4 C
23.08.2012 14:26 25,6 C 41 % 1015,0 hPa 0,0 l/m 11,9 km/h (2 Bft) S-SW 202 11,4 C 25,6 C
23.08.2012 14:31 25,4 C 41 % 1014,9 hPa 0,0 l/m 3,6 km/h (1 Bft) W 270 11,2 C 25,4 C
23.08.2012 14:36 25,4 C 42 % 1014,9 hPa 0,0 l/m 12,6 km/h (3 Bft) W-SW 247 11,5 C 25,4 C
23.08.2012 14:41 25,8 C 41 % 1015,0 hPa 0,0 l/m 12,2 km/h (2 Bft) SW 225 11,5 C 25,8 C
23.08.2012 14:46 25,9 C 40 % 1015,1 hPa 0,0 l/m 11,9 km/h (2 Bft) W 270 11,3 C 25,9 C
23.08.2012 14:51 25,4 C 41 % 1015,0 hPa 0,0 l/m 8,3 km/h (2 Bft) SW 225 11,2 C 25,4 C
23.08.2012 14:56 25,2 C 42 % 1015,0 hPa 0,0 l/m 11,9 km/h (2 Bft) W-SW 247 11,4 C 25,2 C
23.08.2012 15:01 24,9 C 41 % 1014,9 hPa 0,0 l/m 12,2 km/h (2 Bft) W-SW 247 10,7 C 24,9 C
23.08.2012 15:06 24,8 C 42 % 1014,9 hPa 0,0 l/m 8,3 km/h (2 Bft) W-SW 247 11,0 C 24,8 C
23.08.2012 15:11 24,6 C 43 % 1014,8 hPa 0,0 l/m 13,7 km/h (3 Bft) W-SW 247 11,2 C 24,6 C
23.08.2012 15:16 24,6 C 43 % 1014,9 hPa 0,0 l/m 10,1 km/h (2 Bft) W 270 11,2 C 24,6 C
23.08.2012 15:21 24,8 C 43 % 1014,7 hPa 0,0 l/m 8,6 km/h (2 Bft) S 180 11,4 C 24,8 C
23.08.2012 15:26 24,8 C 43 % 1014,8 hPa 0,0 l/m 11,2 km/h (2 Bft) NW 315 11,4 C 24,8 C
23.08.2012 15:31 24,6 C 42 % 1014,6 hPa 0,0 l/m 5,0 km/h (1 Bft) W-SW 247 10,8 C 24,6 C
23.08.2012 15:36 24,6 C 43 % 1014,7 hPa 0,0 l/m 5,8 km/h (2 Bft) W 270 11,2 C 24,6 C
23.08.2012 15:41 24,5 C 43 % 1014,6 hPa 0,0 l/m 13,0 km/h (3 Bft) W-SW 247 11,1 C 24,5 C
23.08.2012 15:46 24,4 C 43 % 1014,6 hPa 0,0 l/m 7,6 km/h (2 Bft) W-SW 247 11,0 C 24,4 C
23.08.2012 15:51 24,2 C 44 % 1014,6 hPa 0,0 l/m 4,3 km/h (1 Bft) S-SW 202 11,2 C 24,2 C
23.08.2012 15:56 24,3 C 44 % 1014,5 hPa 0,0 l/m 21,6 km/h (4 Bft) W 270 11,3 C 24,3 C
23.08.2012 16:01 24,5 C 43 % 1014,6 hPa 0,0 l/m 19,8 km/h (3 Bft) W-SW 247 11,1 C 24,5 C
23.08.2012 16:06 24,4 C 42 % 1014,5 hPa 0,0 l/m 8,3 km/h (2 Bft) SW 225 10,6 C 24,4 C
23.08.2012 16:11 24,3 C 43 % 1014,6 hPa 0,0 l/m 13,7 km/h (3 Bft) SW 225 10,9 C 24,3 C
23.08.2012 16:16 24,1 C 43 % 1014,6 hPa 0,0 l/m 7,2 km/h (2 Bft) W-SW 247 10,7 C 24,1 C
23.08.2012 16:21 23,9 C 44 % 1014,8 hPa 0,0 l/m 6,1 km/h (2 Bft) W 270 10,9 C 23,9 C
23.08.2012 16:26 23,9 C 44 % 1014,6 hPa 0,0 l/m 7,6 km/h (2 Bft) W 270 10,9 C 23,9 C
23.08.2012 16:31 24,1 C 44 % 1014,6 hPa 0,0 l/m 18,7 km/h (3 Bft) W-SW 247 11,1 C 24,1 C
23.08.2012 16:36 24,5 C 43 % 1014,5 hPa 0,0 l/m 7,9 km/h (2 Bft) SW 225 11,1 C 24,5 C
23.08.2012 16:41 24,9 C 42 % 1014,5 hPa 0,0 l/m 21,6 km/h (4 Bft) SW 225 11,1 C 24,9 C
23.08.2012 16:46 24,9 C 42 % 1014,5 hPa 0,0 l/m 14,8 km/h (3 Bft) W-SW 247 11,1 C 24,9 C
23.08.2012 16:51 24,8 C 42 % 1014,5 hPa 0,0 l/m 12,2 km/h (2 Bft) W 270 11,0 C 24,8 C
23.08.2012 16:56 24,6 C 43 % 1014,5 hPa 0,0 l/m 7,9 km/h (2 Bft) W 270 11,2 C 24,6 C
23.08.2012 17:01 24,7 C 43 % 1014,3 hPa 0,0 l/m 13,7 km/h (3 Bft) W-SW 247 11,3 C 24,7 C
23.08.2012 17:06 24,9 C 42 % 1014,3 hPa 0,0 l/m 14,8 km/h (3 Bft) W-SW 247 11,1 C 24,9 C
23.08.2012 17:11 25,0 C 42 % 1014,4 hPa 0,0 l/m 14,4 km/h (3 Bft) W-SW 247 11,2 C 25,0 C
23.08.2012 17:16 25,2 C 42 % 1014,3 hPa 0,0 l/m 16,9 km/h (3 Bft) W-SW 247 11,4 C 25,2 C
23.08.2012 17:21 25,2 C 41 % 1014,4 hPa 0,0 l/m 5,8 km/h (2 Bft) W-SW 247 11,0 C 25,2 C
23.08.2012 17:26 24,9 C 41 % 1014,4 hPa 0,0 l/m 5,4 km/h (1 Bft) W-NW 292 10,7 C 24,9 C
23.08.2012 17:31 24,6 C 42 % 1014,3 hPa 0,0 l/m 2,2 km/h (1 Bft) W-SW 247 10,8 C 24,6 C
23.08.2012 17:36 24,4 C 43 % 1014,3 hPa 0,0 l/m 13,3 km/h (3 Bft) W-SW 247 11,0 C 24,4 C
23.08.2012 17:41 24,4 C 43 % 1014,2 hPa 0,0 l/m 10,4 km/h (2 Bft) S 180 11,0 C 24,4 C
23.08.2012 17:46 24,5 C 43 % 1014,2 hPa 0,0 l/m 21,2 km/h (4 Bft) W 270 11,1 C 24,5 C
23.08.2012 17:51 24,5 C 42 % 1014,2 hPa 0,0 l/m 16,6 km/h (3 Bft) W-SW 247 10,7 C 24,5 C
23.08.2012 17:56 24,4 C 42 % 1014,2 hPa 0,0 l/m 4,7 km/h (1 Bft) W 270 10,6 C 24,4 C
23.08.2012 18:01 24,5 C 42 % 1014,1 hPa 0,0 l/m 8,3 km/h (2 Bft) W-SW 247 10,7 C 24,5 C
23.08.2012 18:06 24,5 C 43 % 1014,1 hPa 0,0 l/m 3,2 km/h (1 Bft) W 270 11,1 C 24,5 C
23.08.2012 18:11 24,5 C 43 % 1014,0 hPa 0,0 l/m 16,2 km/h (3 Bft) W-SW 247 11,1 C 24,5 C
23.08.2012 18:16 24,5 C 42 % 1014,0 hPa 0,0 l/m 7,2 km/h (2 Bft) S-SW 202 10,7 C 24,5 C
23.08.2012 18:21 24,4 C 42 % 1014,0 hPa 0,0 l/m 3,2 km/h (1 Bft) W-SW 247 10,6 C 24,4 C
23.08.2012 18:26 24,3 C 42 % 1014,0 hPa 0,0 l/m 16,9 km/h (3 Bft) W-SW 247 10,6 C 24,3 C
23.08.2012 18:31 24,2 C 43 % 1013,9 hPa 0,0 l/m 2,2 km/h (1 Bft) W 270 10,8 C 24,2 C
23.08.2012 18:36 24,1 C 42 % 1013,9 hPa 0,0 l/m 4,7 km/h (1 Bft) W-SW 247 10,4 C 24,1 C
23.08.2012 18:41 23,9 C 42 % 1013,9 hPa 0,0 l/m 9,7 km/h (2 Bft) W-SW 247 10,2 C 23,9 C
23.08.2012 18:46 23,9 C 43 % 1013,9 hPa 0,0 l/m 10,1 km/h (2 Bft) W 270 10,5 C 23,9 C
23.08.2012 18:51 23,8 C 43 % 1013,8 hPa 0,0 l/m 5,8 km/h (2 Bft) NW 315 10,5 C 23,8 C
23.08.2012 18:56 23,8 C 44 % 1013,8 hPa 0,0 l/m 5,4 km/h (1 Bft) SW 225 10,8 C 23,8 C
23.08.2012 19:01 23,6 C 44 % 1013,8 hPa 0,0 l/m 3,6 km/h (1 Bft) SW 225 10,6 C 23,6 C
23.08.2012 19:06 23,5 C 44 % 1013,8 hPa 0,0 l/m 6,1 km/h (2 Bft) W-SW 247 10,5 C 23,5 C
23.08.2012 19:11 23,4 C 44 % 1013,8 hPa 0,0 l/m 6,5 km/h (2 Bft) W 270 10,4 C 23,4 C
23.08.2012 19:16 23,3 C 44 % 1013,7 hPa 0,0 l/m 9,0 km/h (2 Bft) W-SW 247 10,4 C 23,3 C
23.08.2012 19:21 23,1 C 45 % 1013,7 hPa 0,0 l/m 13,0 km/h (3 Bft) W-SW 247 10,5 C 23,1 C
23.08.2012 19:26 22,9 C 45 % 1013,8 hPa 0,0 l/m 4,3 km/h (1 Bft) SW 225 10,3 C 22,9 C
23.08.2012 19:31 22,8 C 46 % 1013,6 hPa 0,0 l/m 5,0 km/h (1 Bft) W-SW 247 10,6 C 22,8 C
23.08.2012 19:36 22,6 C 46 % 1013,6 hPa 0,0 l/m 1,1 km/h (1 Bft) SW 225 10,4 C 22,6 C
23.08.2012 19:41 22,4 C 46 % 1013,5 hPa 0,0 l/m 4,0 km/h (1 Bft) W-SW 247 10,2 C 22,4 C
23.08.2012 19:46 22,2 C 47 % 1013,4 hPa 0,0 l/m 2,2 km/h (1 Bft) W-SW 247 10,3 C 22,2 C
23.08.2012 19:51 22,1 C 47 % 1013,4 hPa 0,0 l/m 3,6 km/h (1 Bft) W-SW 247 10,3 C 22,1 C
23.08.2012 19:56 21,9 C 48 % 1013,3 hPa 0,0 l/m 1,4 km/h (1 Bft) W-SW 247 10,4 C 21,9 C
23.08.2012 20:01 21,6 C 49 % 1013,4 hPa 0,0 l/m 1,8 km/h (1 Bft) W-SW 247 10,4 C 21,6 C
23.08.2012 20:06 21,4 C 49 % 1013,4 hPa 0,0 l/m 0,0 km/h (0 Bft) W-SW 247 10,2 C 21,4 C
23.08.2012 20:11 21,3 C 50 % 1013,4 hPa 0,0 l/m 0,0 km/h (0 Bft) W-SW 247 10,4 C 21,3 C
23.08.2012 20:16 21,1 C 50 % 1013,4 hPa 0,0 l/m 0,0 km/h (0 Bft) W-SW 247 10,3 C 21,1 C
23.08.2012 20:21 20,9 C 51 % 1013,4 hPa 0,0 l/m 0,0 km/h (0 Bft) S 180 10,4 C 20,9 C
23.08.2012 20:26 20,6 C 51 % 1013,6 hPa 0,0 l/m 1,4 km/h (1 Bft) S 180 10,1 C 20,6 C
23.08.2012 20:31 20,4 C 51 % 1013,5 hPa 0,0 l/m 1,4 km/h (1 Bft) S 180 9,9 C 20,4 C
23.08.2012 20:36 20,2 C 52 % 1013,5 hPa 0,0 l/m 0,0 km/h (0 Bft) S 180 10,0 C 20,2 C
23.08.2012 20:41 19,9 C 53 % 1013,6 hPa 0,0 l/m 1,4 km/h (1 Bft) S 180 10,0 C 19,9 C
23.08.2012 20:46 19,8 C 54 % 1013,6 hPa 0,0 l/m 0,0 km/h (0 Bft) S 180 10,2 C 19,8 C
23.08.2012 20:51 19,6 C 54 % 1013,6 hPa 0,0 l/m 3,2 km/h (1 Bft) W-SW 247 10,0 C 19,6 C
23.08.2012 20:56 19,4 C 55 % 1013,6 hPa 0,0 l/m 0,0 km/h (0 Bft) W-SW 247 10,1 C 19,4 C
23.08.2012 21:01 19,3 C 55 % 1013,7 hPa 0,0 l/m 0,0 km/h (0 Bft) W-SW 247 10,0 C 19,3 C
23.08.2012 21:06 19,1 C 56 % 1013,6 hPa 0,0 l/m 1,1 km/h (1 Bft) W-SW 247 10,1 C 19,1 C
23.08.2012 21:11 18,9 C 56 % 1013,6 hPa 0,0 l/m 0,0 km/h (0 Bft) W-SW 247 9,9 C 18,9 C
23.08.2012 21:16 18,7 C 57 % 1013,7 hPa 0,0 l/m 0,0 km/h (0 Bft) W-SW 247 10,0 C 18,7 C
23.08.2012 21:21 18,5 C 58 % 1013,5 hPa 0,0 l/m 0,0 km/h (0 Bft) W-SW 247 10,1 C 18,5 C
23.08.2012 21:26 18,4 C 58 % 1013,5 hPa 0,0 l/m 0,0 km/h (0 Bft) W-SW 247 10,0 C 18,4 C
23.08.2012 21:31 18,2 C 59 % 1013,4 hPa 0,0 l/m 0,0 km/h (0 Bft) W-SW 247 10,1 C 18,2 C
23.08.2012 21:36 18,1 C 60 % 1013,4 hPa 0,0 l/m 0,0 km/h (0 Bft) W-SW 247 10,2 C 18,1 C
23.08.2012 21:41 17,9 C 60 % 1013,2 hPa 0,0 l/m 0,0 km/h (0 Bft) W-SW 247 10,0 C 17,9 C
23.08.2012 21:46 17,7 C 60 % 1013,2 hPa 0,0 l/m 0,0 km/h (0 Bft) W-SW 247 9,8 C 17,7 C
23.08.2012 21:51 17,5 C 61 % 1013,1 hPa 0,0 l/m 0,0 km/h (0 Bft) W-SW 247 9,9 C 17,5 C
23.08.2012 21:56 17,3 C 63 % 1013,0 hPa 0,0 l/m 0,0 km/h (0 Bft) W-SW 247 10,2 C 17,3 C
23.08.2012 22:01 17,3 C 63 % 1013,1 hPa 0,0 l/m 0,0 km/h (0 Bft) W-SW 247 10,2 C 17,3 C
23.08.2012 22:06 17,1 C 63 % 1013,1 hPa 0,0 l/m 1,4 km/h (1 Bft) S-SW 202 10,0 C 17,1 C
23.08.2012 22:11 17,0 C 64 % 1013,1 hPa 0,0 l/m 0,0 km/h (0 Bft) S-SO 157 10,1 C 17,0 C
23.08.2012 22:16 16,9 C 65 % 1013,1 hPa 0,0 l/m 1,8 km/h (1 Bft) SO 135 10,3 C 16,9 C
23.08.2012 22:21 16,9 C 64 % 1013,1 hPa 0,0 l/m 0,0 km/h (0 Bft) SO 135 10,0 C 16,9 C
23.08.2012 22:26 16,9 C 64 % 1013,1 hPa 0,0 l/m 0,0 km/h (0 Bft) SO 135 10,0 C 16,9 C
23.08.2012 22:31 16,8 C 65 % 1013,1 hPa 0,0 l/m 0,0 km/h (0 Bft) SO 135 10,2 C 16,8 C
23.08.2012 22:36 16,6 C 64 % 1013,2 hPa 0,0 l/m 0,0 km/h (0 Bft) SO 135 9,8 C 16,6 C
23.08.2012 22:41 16,4 C 64 % 1013,2 hPa 0,0 l/m 0,0 km/h (0 Bft) SO 135 9,6 C 16,4 C
23.08.2012 22:46 16,3 C 65 % 1013,2 hPa 0,0 l/m 0,0 km/h (0 Bft) SO 135 9,7 C 16,3 C
23.08.2012 22:51 16,2 C 65 % 1013,2 hPa 0,0 l/m 0,0 km/h (0 Bft) S-SO 157 9,6 C 16,2 C
23.08.2012 22:56 16,1 C 66 % 1013,2 hPa 0,0 l/m 2,2 km/h (1 Bft) S-SO 157 9,7 C 16,1 C
23.08.2012 23:01 15,9 C 67 % 1013,1 hPa 0,0 l/m 0,0 km/h (0 Bft) S-SO 157 9,8 C 15,9 C
23.08.2012 23:06 15,9 C 67 % 1013,1 hPa 0,0 l/m 0,0 km/h (0 Bft) S-SO 157 9,8 C 15,9 C
23.08.2012 23:11 15,8 C 67 % 1013,0 hPa 0,0 l/m 0,0 km/h (0 Bft) S-SO 157 9,7 C 15,8 C
23.08.2012 23:16 15,8 C 69 % 1013,2 hPa 0,0 l/m 1,4 km/h (1 Bft) NW 315 10,1 C 15,8 C
23.08.2012 23:21 15,6 C 70 % 1013,4 hPa 0,0 l/m 2,5 km/h (1 Bft) N-NO 22 10,1 C 15,6 C
23.08.2012 23:26 15,6 C 69 % 1013,3 hPa 0,0 l/m 0,0 km/h (0 Bft) N-NO 22 9,9 C 15,6 C
23.08.2012 23:31 15,5 C 69 % 1013,2 hPa 0,0 l/m 2,9 km/h (1 Bft) N-NO 22 9,8 C 15,5 C
23.08.2012 23:36 15,5 C 70 % 1013,2 hPa 0,0 l/m 0,0 km/h (0 Bft) N-NO 22 10,1 C 15,5 C
23.08.2012 23:41 15,4 C 70 % 1013,1 hPa 0,0 l/m 0,0 km/h (0 Bft) N-NO 22 10,0 C 15,4 C
23.08.2012 23:46 15,3 C 70 % 1013,1 hPa 0,0 l/m 0,0 km/h (0 Bft) N-NO 22 9,9 C 15,3 C
23.08.2012 23:51 15,3 C 70 % 1013,0 hPa 0,0 l/m 0,0 km/h (0 Bft) N-NO 22 9,9 C 15,3 C
23.08.2012 23:56 15,2 C 70 % 1013,0 hPa 0,0 l/m 1,8 km/h (1 Bft) S-SO 157 9,8 C 15,2 C
_ Min-Zeit 06:36 14:46 21:56 - 00:06 - - 22:41 06:36
Minimum _ 14,5 C 40 % 1013,0 hPa - 0,0 km/h (0 Bft) - - 9,6 C 14,5 C
_ Max-Zeit 14:46 06:51 09:51 00:01 14:16 - - 09:11 14:46
Maximum _ 25,9 C 78 % 1016,5 hPa 0,0 l/m 32,8 km/h
W-SW (5 Bft)
- - 12,8 C 25,9 C
Durchschnitt _ 19,7 C 59 % 1015,1 hPa #0,0 l/m 7,3 km/h (2 Bft) W-SW - 11,1 C 19,7 C
(c) by David Heller